Time,TemperatureF,DewpointF,PressureIn,WindDirection,WindDirectionDegrees,WindSpeedMPH,WindSpeedGustMPH,Humidity,HourlyPrecipIn,Conditions,Clouds,dailyrainin,SoftwareType,DateUTC
2013-05-06 00:02:00,38.0,36.0,30.09,ESE,110,0.0,0.0,91,0.00,,,0.00,,2013-05-06 05:02:00,
2013-05-06 00:12:00,38.0,36.0,30.09,ESE,110,0.0,0.0,91,0.00,,,0.00,,2013-05-06 05:12:00,
2013-05-06 00:22:00,37.0,35.0,30.09,ESE,110,0.0,0.0,92,0.00,,,0.00,,2013-05-06 05:22:00,
2013-05-06 00:32:00,37.0,35.0,30.09,ESE,110,0.0,0.0,92,0.00,,,0.00,,2013-05-06 05:32:00,
2013-05-06 00:42:00,37.0,35.0,30.09,ESE,110,0.0,0.0,92,0.00,,,0.00,,2013-05-06 05:42:00,
2013-05-06 00:52:00,36.0,34.0,30.09,ESE,110,0.0,0.0,93,0.00,,,0.00,,2013-05-06 05:52:00,
2013-05-06 01:02:00,35.0,33.0,30.09,ESE,110,0.0,0.0,94,0.00,,,0.00,,2013-05-06 06:02:00,
2013-05-06 01:12:00,35.0,33.0,30.09,ESE,110,0.0,0.0,94,0.00,,,0.00,,2013-05-06 06:12:00,
2013-05-06 01:21:00,34.0,32.0,30.08,ESE,110,0.0,0.0,94,0.00,,,0.00,,2013-05-06 06:21:00,
2013-05-06 01:32:00,33.0,32.0,30.08,ESE,110,0.0,0.0,95,0.00,,,0.00,,2013-05-06 06:32:00,
2013-05-06 01:42:00,33.0,32.0,30.08,ESE,110,0.0,0.0,95,0.00,,,0.00,,2013-05-06 06:42:00,
2013-05-06 01:52:00,33.0,32.0,30.08,ESE,110,0.0,0.0,95,0.00,,,0.00,,2013-05-06 06:52:00,
2013-05-06 02:01:00,32.0,31.0,30.08,ESE,110,0.0,0.0,95,0.00,,,0.00,,2013-05-06 07:01:00,
2013-05-06 02:11:00,32.0,31.0,30.08,ESE,110,0.0,0.0,95,0.00,,,0.00,,2013-05-06 07:11:00,
2013-05-06 02:22:00,32.0,31.0,30.07,ESE,110,0.0,0.0,95,0.00,,,0.00,,2013-05-06 07:22:00,
2013-05-06 02:31:00,32.0,31.0,30.08,ESE,110,0.0,0.0,96,0.00,,,0.00,,2013-05-06 07:31:00,
2013-05-06 02:42:00,32.0,31.0,30.08,ESE,110,0.0,0.0,96,0.00,,,0.00,,2013-05-06 07:42:00,
2013-05-06 02:52:00,31.0,30.0,30.07,ESE,110,0.0,0.0,96,0.00,,,0.00,,2013-05-06 07:52:00,
2013-05-06 03:02:00,30.0,29.0,30.07,ESE,110,0.0,0.0,96,0.00,,,0.00,,2013-05-06 08:02:00,
2013-05-06 03:12:00,30.0,29.0,30.07,ESE,110,0.0,0.0,96,0.00,,,0.00,,2013-05-06 08:12:00,
2013-05-06 03:22:00,30.0,29.0,30.07,ESE,110,0.0,0.0,96,0.00,,,0.00,,2013-05-06 08:22:00,
2013-05-06 03:32:00,30.0,29.0,30.07,ESE,110,0.0,0.0,96,0.00,,,0.00,,2013-05-06 08:32:00,
2013-05-06 03:42:00,30.0,29.0,30.07,ESE,110,0.0,0.0,96,0.00,,,0.00,,2013-05-06 08:42:00,
2013-05-06 03:52:00,29.0,28.0,30.08,ESE,110,0.0,0.0,96,0.00,,,0.00,,2013-05-06 08:52:00,
2013-05-06 04:01:00,29.0,28.0,30.08,ESE,110,0.0,0.0,96,0.00,,,0.00,,2013-05-06 09:01:00,
2013-05-06 04:11:00,29.0,28.0,30.08,ESE,110,0.0,0.0,96,0.00,,,0.00,,2013-05-06 09:11:00,
2013-05-06 04:22:00,29.0,28.0,30.08,ESE,110,0.0,0.0,96,0.00,,,0.00,,2013-05-06 09:22:00,
2013-05-06 04:33:00,28.0,27.0,30.08,ESE,110,0.0,0.0,96,0.00,,,0.00,,2013-05-06 09:33:00,
2013-05-06 04:42:00,28.0,27.0,30.08,ESE,110,0.0,0.0,96,0.00,,,0.00,,2013-05-06 09:42:00,
2013-05-06 04:53:00,28.0,27.0,30.08,ESE,110,0.0,0.0,97,0.00,,,0.00,,2013-05-06 09:53:00,
2013-05-06 05:02:00,28.0,27.0,30.08,ESE,110,0.0,0.0,97,0.00,,,0.00,,2013-05-06 10:02:00,
2013-05-06 05:12:00,28.0,27.0,30.08,ESE,110,0.0,0.0,97,0.00,,,0.00,,2013-05-06 10:12:00,
2013-05-06 05:22:00,28.0,27.0,30.08,ESE,110,0.0,0.0,97,0.00,,,0.00,,2013-05-06 10:22:00,
2013-05-06 05:33:00,28.0,27.0,30.09,ESE,110,0.0,0.0,97,0.00,,,0.00,,2013-05-06 10:33:00,
2013-05-06 05:42:00,28.0,27.0,30.09,ESE,110,0.0,0.0,97,0.00,,,0.00,,2013-05-06 10:42:00,
2013-05-06 05:52:00,29.0,28.0,30.09,ESE,110,0.0,0.0,97,0.00,,,0.00,,2013-05-06 10:52:00,
2013-05-06 06:02:00,28.0,27.0,30.09,ESE,110,0.0,0.0,97,0.00,,,0.00,,2013-05-06 11:02:00,
2013-05-06 06:12:00,28.0,27.0,30.09,ESE,110,0.0,0.0,97,0.00,,,0.00,,2013-05-06 11:12:00,
2013-05-06 06:22:00,28.0,27.0,30.10,ESE,110,0.0,0.0,97,0.00,,,0.00,,2013-05-06 11:22:00,
2013-05-06 06:31:00,29.0,28.0,30.10,ESE,110,0.0,0.0,97,0.00,,,0.00,,2013-05-06 11:31:00,
2013-05-06 06:42:00,29.0,28.0,30.10,ESE,110,0.0,0.0,97,0.00,,,0.00,,2013-05-06 11:42:00,
2013-05-06 06:52:00,30.0,29.0,30.10,ESE,110,0.0,0.0,97,0.00,,,0.00,,2013-05-06 11:52:00,
2013-05-06 07:01:00,31.0,30.0,30.10,ESE,110,0.0,0.0,97,0.00,,,0.00,,2013-05-06 12:01:00,
2013-05-06 07:12:00,31.0,30.0,30.10,ESE,110,0.0,0.0,97,0.00,,,0.00,,2013-05-06 12:12:00,
2013-05-06 07:21:00,33.0,32.0,30.10,ESE,110,0.0,0.0,98,0.00,,,0.00,,2013-05-06 12:21:00,
2013-05-06 07:32:00,37.0,36.0,30.10,ESE,110,0.0,0.0,98,0.00,,,0.00,,2013-05-06 12:32:00,
2013-05-06 07:42:00,37.0,36.0,30.10,ESE,110,0.0,0.0,98,0.00,,,0.00,,2013-05-06 12:42:00,
2013-05-06 07:52:00,41.0,39.0,30.11,NW,321,0.0,0.0,94,0.00,,,0.00,,2013-05-06 12:52:00,
2013-05-06 08:01:00,44.0,40.0,30.11,NW,324,0.0,1.0,87,0.00,,,0.00,,2013-05-06 13:01:00,
2013-05-06 08:11:00,44.0,40.0,30.11,NW,324,0.0,1.0,87,0.00,,,0.00,,2013-05-06 13:11:00,
2013-05-06 08:21:00,48.0,42.0,30.11,NW,324,0.0,1.0,80,0.00,,,0.00,,2013-05-06 13:21:00,
2013-05-06 08:32:00,53.0,43.0,30.10,SW,232,0.0,1.0,68,0.00,,,0.00,,2013-05-06 13:32:00,
2013-05-06 08:42:00,53.0,43.0,30.10,SW,232,0.0,1.0,68,0.00,,,0.00,,2013-05-06 13:42:00,
2013-05-06 08:52:00,56.0,42.0,30.10,East,89,0.0,1.0,60,0.00,,,0.00,,2013-05-06 13:52:00,
2013-05-06 09:01:00,58.0,42.0,30.10,SSE,158,0.0,2.0,55,0.00,,,0.00,,2013-05-06 14:01:00,
2013-05-06 09:11:00,58.0,42.0,30.10,SSE,158,0.0,2.0,55,0.00,,,0.00,,2013-05-06 14:11:00,
2013-05-06 09:21:00,59.0,42.0,30.10,WSW,245,0.0,2.0,53,0.00,,,0.00,,2013-05-06 14:21:00,
2013-05-06 09:32:00,61.0,43.0,30.10,SW,229,0.0,2.0,51,0.00,,,0.00,,2013-05-06 14:32:00,
2013-05-06 09:42:00,61.0,43.0,30.10,SW,229,0.0,2.0,51,0.00,,,0.00,,2013-05-06 14:42:00,
2013-05-06 09:52:00,62.0,41.0,30.09,SW,225,1.0,3.0,46,0.00,,,0.00,,2013-05-06 14:52:00,
2013-05-06 10:01:00,64.0,42.0,30.09,SSE,152,1.0,2.0,44,0.00,,,0.00,,2013-05-06 15:01:00,
2013-05-06 10:11:00,64.0,42.0,30.09,SSE,152,1.0,2.0,44,0.00,,,0.00,,2013-05-06 15:11:00,
2013-05-06 10:21:00,66.0,42.0,30.09,West,266,1.0,3.0,42,0.00,,,0.00,,2013-05-06 15:21:00,
2013-05-06 10:33:00,67.0,42.0,30.09,East,98,1.0,4.0,40,0.00,,,0.00,,2013-05-06 15:33:00,
2013-05-06 10:42:00,67.0,42.0,30.09,East,98,1.0,4.0,40,0.00,,,0.00,,2013-05-06 15:42:00,
2013-05-06 10:53:00,68.0,42.0,30.08,West,259,1.0,2.0,39,0.00,,,0.00,,2013-05-06 15:53:00,
2013-05-06 11:03:00,68.0,41.0,30.08,NNE,19,0.0,2.0,37,0.00,,,0.00,,2013-05-06 16:03:00,
2013-05-06 11:13:00,68.0,41.0,30.08,NNE,19,0.0,2.0,37,0.00,,,0.00,,2013-05-06 16:13:00,
2013-05-06 11:23:00,70.0,42.0,30.07,SW,218,0.0,3.0,36,0.00,,,0.00,,2013-05-06 16:23:00,
2013-05-06 11:32:00,71.0,41.0,30.07,WSW,253,1.0,4.0,34,0.00,,,0.00,,2013-05-06 16:32:00,
2013-05-06 11:42:00,71.0,41.0,30.07,WSW,253,1.0,4.0,34,0.00,,,0.00,,2013-05-06 16:42:00,
2013-05-06 11:52:00,73.0,41.0,30.06,West,266,1.0,3.0,31,0.00,,,0.00,,2013-05-06 16:52:00,
2013-05-06 12:02:00,73.0,39.0,30.06,WSW,243,1.0,4.0,29,0.00,,,0.00,,2013-05-06 17:02:00,
2013-05-06 12:12:00,73.0,39.0,30.06,WSW,243,1.0,4.0,29,0.00,,,0.00,,2013-05-06 17:12:00,
2013-05-06 12:23:00,73.0,41.0,30.05,ESE,107,1.0,7.0,31,0.00,,,0.00,,2013-05-06 17:23:00,
2013-05-06 12:31:00,74.0,41.0,30.04,SSE,155,2.0,4.0,30,0.00,,,0.00,,2013-05-06 17:31:00,
2013-05-06 12:42:00,74.0,41.0,30.04,SSE,155,2.0,4.0,30,0.00,,,0.00,,2013-05-06 17:42:00,
2013-05-06 12:52:00,74.0,40.0,30.03,WNW,282,2.0,4.0,29,0.00,,,0.00,,2013-05-06 17:52:00,
2013-05-06 13:01:00,75.0,41.0,30.03,South,172,1.0,6.0,29,0.00,,,0.00,,2013-05-06 18:01:00,
2013-05-06 13:12:00,75.0,41.0,30.03,South,172,1.0,6.0,29,0.00,,,0.00,,2013-05-06 18:12:00,
2013-05-06 13:21:00,75.0,39.0,30.03,SSE,152,0.0,3.0,27,0.00,,,0.00,,2013-05-06 18:21:00,
2013-05-06 13:31:00,75.0,37.0,30.03,SE,131,2.0,5.0,25,0.00,,,0.00,,2013-05-06 18:31:00,
2013-05-06 13:43:00,75.0,37.0,30.03,SE,131,2.0,5.0,25,0.00,,,0.00,,2013-05-06 18:43:00,
2013-05-06 13:52:00,77.0,37.0,30.03,WSW,240,1.0,6.0,24,0.00,,,0.00,,2013-05-06 18:52:00,
2013-05-06 14:01:00,76.0,39.0,30.02,NE,36,2.0,7.0,26,0.00,,,0.00,,2013-05-06 19:01:00,
2013-05-06 14:11:00,76.0,39.0,30.02,NE,36,2.0,7.0,26,0.00,,,0.00,,2013-05-06 19:11:00,
2013-05-06 14:22:00,76.0,37.0,30.01,NNE,27,2.0,7.0,24,0.00,,,0.00,,2013-05-06 19:22:00,
2013-05-06 14:32:00,77.0,37.0,30.01,NE,39,1.0,4.0,24,0.00,,,0.00,,2013-05-06 19:32:00,
2013-05-06 14:41:00,77.0,37.0,30.01,NE,39,1.0,4.0,24,0.00,,,0.00,,2013-05-06 19:41:00,
2013-05-06 14:52:00,78.0,38.0,30.01,WNW,287,1.0,7.0,24,0.00,,,0.00,,2013-05-06 19:52:00,
2013-05-06 15:02:00,78.0,38.0,30.00,ESE,107,0.0,5.0,24,0.00,,,0.00,,2013-05-06 20:02:00,
2013-05-06 15:11:00,78.0,38.0,30.00,ESE,107,0.0,5.0,24,0.00,,,0.00,,2013-05-06 20:11:00,
2013-05-06 15:21:00,77.0,37.0,29.99,WSW,253,1.0,5.0,24,0.00,,,0.00,,2013-05-06 20:21:00,
2013-05-06 15:32:00,77.0,41.0,29.98,East,82,1.0,5.0,28,0.00,,,0.00,,2013-05-06 20:32:00,
2013-05-06 15:42:00,77.0,41.0,29.98,East,82,1.0,5.0,28,0.00,,,0.00,,2013-05-06 20:42:00,
2013-05-06 15:52:00,78.0,38.0,29.98,ENE,68,0.0,9.0,24,0.00,,,0.00,,2013-05-06 20:52:00,
2013-05-06 16:01:00,78.0,38.0,29.98,South,181,1.0,5.0,24,0.00,,,0.00,,2013-05-06 21:01:00,
2013-05-06 16:11:00,78.0,38.0,29.98,South,181,1.0,5.0,24,0.00,,,0.00,,2013-05-06 21:11:00,
2013-05-06 16:21:00,77.0,37.0,29.98,SSE,160,1.0,5.0,24,0.00,,,0.00,,2013-05-06 21:21:00,
2013-05-06 16:32:00,77.0,39.0,29.97,NW,313,0.0,4.0,26,0.00,,,0.00,,2013-05-06 21:32:00,
2013-05-06 16:43:00,77.0,39.0,29.97,NW,313,0.0,4.0,26,0.00,,,0.00,,2013-05-06 21:43:00,
2013-05-06 16:53:00,78.0,37.0,29.96,South,173,0.0,2.0,23,0.00,,,0.00,,2013-05-06 21:53:00,
2013-05-06 17:03:00,77.0,36.0,29.96,East,90,0.0,5.0,23,0.00,,,0.00,,2013-05-06 22:03:00,
2013-05-06 17:12:00,77.0,36.0,29.96,East,90,0.0,5.0,23,0.00,,,0.00,,2013-05-06 22:12:00,
2013-05-06 17:22:00,79.0,39.0,29.96,South,176,0.0,5.0,24,0.00,,,0.00,,2013-05-06 22:22:00,
2013-05-06 17:33:00,77.0,36.0,29.96,SE,146,0.0,6.0,23,0.00,,,0.00,,2013-05-06 22:33:00,
2013-05-06 17:45:00,77.0,36.0,29.96,SE,146,0.0,6.0,23,0.00,,,0.00,,2013-05-06 22:45:00,
2013-05-06 17:52:00,77.0,36.0,29.96,WSW,258,0.0,4.0,23,0.00,,,0.00,,2013-05-06 22:52:00,
2013-05-06 18:02:00,76.0,38.0,29.96,NNW,327,0.0,4.0,25,0.00,,,0.00,,2013-05-06 23:02:00,
2013-05-06 18:12:00,76.0,38.0,29.96,NNW,327,0.0,4.0,25,0.00,,,0.00,,2013-05-06 23:12:00,
2013-05-06 18:22:00,75.0,38.0,29.96,SSE,158,0.0,1.0,26,0.00,,,0.00,,2013-05-06 23:22:00,
2013-05-06 18:31:00,75.0,37.0,29.96,NW,321,0.0,3.0,25,0.00,,,0.00,,2013-05-06 23:31:00,
2013-05-06 18:41:00,75.0,37.0,29.96,NW,321,0.0,3.0,25,0.00,,,0.00,,2013-05-06 23:41:00,
2013-05-06 18:52:00,73.0,41.0,29.96,West,280,0.0,0.0,31,0.00,,,0.00,,2013-05-06 23:52:00,
2013-05-06 19:01:00,71.0,42.0,29.97,ENE,61,1.0,6.0,35,0.00,,,0.00,,2013-05-07 00:01:00,
2013-05-06 19:11:00,71.0,42.0,29.97,ENE,61,1.0,6.0,35,0.00,,,0.00,,2013-05-07 00:11:00,
2013-05-06 19:21:00,69.0,42.0,29.97,WSW,239,0.0,5.0,38,0.00,,,0.00,,2013-05-07 00:21:00,
2013-05-06 19:31:00,68.0,43.0,29.98,East,79,0.0,3.0,40,0.00,,,0.00,,2013-05-07 00:31:00,
2013-05-06 19:41:00,68.0,43.0,29.98,East,79,0.0,3.0,40,0.00,,,0.00,,2013-05-07 00:41:00,
2013-05-06 19:52:00,66.0,42.0,29.98,SSE,148,0.0,3.0,42,0.00,,,0.00,,2013-05-07 00:52:00,
2013-05-06 20:01:00,64.0,42.0,29.99,East,94,0.0,3.0,44,0.00,,,0.00,,2013-05-07 01:01:00,
2013-05-06 20:11:00,64.0,42.0,29.99,East,94,0.0,3.0,44,0.00,,,0.00,,2013-05-07 01:11:00,
2013-05-06 20:21:00,63.0,41.0,30.00,SE,126,0.0,4.0,45,0.00,,,0.00,,2013-05-07 01:21:00,
2013-05-06 20:32:00,61.0,43.0,30.01,SE,131,0.0,1.0,51,0.00,,,0.00,,2013-05-07 01:32:00,
2013-05-06 20:42:00,61.0,43.0,30.01,SE,131,0.0,1.0,51,0.00,,,0.00,,2013-05-07 01:42:00,
2013-05-06 20:53:00,59.0,42.0,30.01,East,85,0.0,1.0,54,0.00,,,0.00,,2013-05-07 01:53:00,
2013-05-06 21:02:00,55.0,42.0,30.02,East,85,0.0,0.0,61,0.00,,,0.00,,2013-05-07 02:02:00,
2013-05-06 21:11:00,55.0,42.0,30.02,East,85,0.0,0.0,61,0.00,,,0.00,,2013-05-07 02:11:00,
2013-05-06 21:21:00,53.0,42.0,30.02,East,85,0.0,0.0,67,0.00,,,0.00,,2013-05-07 02:21:00,
2013-05-06 21:31:00,51.0,42.0,30.03,East,84,0.0,0.0,71,0.00,,,0.00,,2013-05-07 02:31:00,
2013-05-06 21:41:00,51.0,42.0,30.03,East,84,0.0,0.0,71,0.00,,,0.00,,2013-05-07 02:41:00,
2013-05-06 21:52:00,49.0,42.0,30.03,East,84,0.0,0.0,76,0.00,,,0.00,,2013-05-07 02:52:00,
2013-05-06 22:01:00,48.0,41.0,30.04,East,84,0.0,0.0,78,0.00,,,0.00,,2013-05-07 03:01:00,
2013-05-06 22:11:00,48.0,41.0,30.04,East,84,0.0,0.0,78,0.00,,,0.00,,2013-05-07 03:11:00,
2013-05-06 22:22:00,47.0,41.0,30.04,SE,139,0.0,0.0,80,0.00,,,0.00,,2013-05-07 03:22:00,
2013-05-06 22:32:00,46.0,40.0,30.04,SE,138,0.0,0.0,80,0.00,,,0.00,,2013-05-07 03:32:00,
2013-05-06 22:42:00,46.0,40.0,30.04,SE,138,0.0,0.0,80,0.00,,,0.00,,2013-05-07 03:42:00,
2013-05-06 22:53:00,46.0,41.0,30.05,SE,138,0.0,0.0,82,0.00,,,0.00,,2013-05-07 03:53:00,
2013-05-06 23:02:00,45.0,40.0,30.05,SE,138,0.0,0.0,84,0.00,,,0.00,,2013-05-07 04:02:00,
2013-05-06 23:12:00,45.0,40.0,30.05,SE,138,0.0,0.0,84,0.00,,,0.00,,2013-05-07 04:12:00,
2013-05-06 23:23:00,44.0,40.0,30.05,SE,138,0.0,0.0,86,0.00,,,0.00,,2013-05-07 04:23:00,
2013-05-06 23:33:00,43.0,39.0,30.05,SE,139,0.0,0.0,87,0.00,,,0.00,,2013-05-07 04:33:00,
2013-05-06 23:42:00,43.0,39.0,30.05,SE,139,0.0,0.0,87,0.00,,,0.00,,2013-05-07 04:42:00,
2013-05-06 23:53:00,42.0,39.0,30.05,SE,139,0.0,0.0,88,0.00,,,0.00,,2013-05-07 04:53:00,